createdAt,value
2019-05-23T00:01:14.337Z,9.95
2019-05-23T00:04:01.713Z,13.00
2019-05-23T00:06:31.892Z,13.10
2019-05-23T00:09:00.746Z,14.63
2019-05-23T00:11:44.613Z,13.15
2019-05-23T00:14:23.347Z,11.63
2019-05-23T00:16:54.055Z,10.67
2019-05-23T00:19:24.782Z,12.55
2019-05-23T00:21:53.641Z,12.75
2019-05-23T00:24:22.251Z,15.03
2019-05-23T00:26:51.105Z,12.63
2019-05-23T00:29:19.810Z,10.95
2019-05-23T00:32:02.817Z,10.93
2019-05-23T00:34:33.987Z,11.60
2019-05-23T00:37:04.610Z,9.88
2019-05-23T00:39:34.936Z,10.85
2019-05-23T00:42:05.165Z,10.20
2019-05-23T00:44:33.781Z,9.35
2019-05-23T00:47:02.333Z,11.30
2019-05-23T00:49:32.119Z,11.63
2019-05-23T00:52:00.566Z,10.23
2019-05-23T00:54:30.073Z,10.53
2019-05-23T00:56:58.651Z,10.78
2019-05-23T00:59:27.996Z,8.30
2019-05-23T01:01:56.893Z,10.35
2019-05-23T01:04:26.184Z,11.93
2019-05-23T01:06:56.173Z,12.03
2019-05-23T01:09:44.382Z,11.10
2019-05-23T01:12:15.418Z,13.60
2019-05-23T01:14:44.471Z,13.25
2019-05-23T01:17:13.551Z,43.95
2019-05-23T01:19:42.919Z,43.87
2019-05-23T01:22:14.808Z,46.33
2019-05-23T01:24:51.037Z,42.78
2019-05-23T01:27:20.465Z,25.60
2019-05-23T01:29:50.394Z,23.90
2019-05-23T01:32:24.006Z,24.00
2019-05-23T01:34:52.923Z,20.88
2019-05-23T01:37:21.742Z,19.42
2019-05-23T01:39:50.306Z,30.48
2019-05-23T01:42:19.954Z,37.30
2019-05-23T01:47:18.325Z,35.65
2019-05-23T01:49:47.376Z,40.03
2019-05-23T01:52:17.735Z,32.98
2019-05-23T01:54:46.819Z,21.95
2019-05-23T01:57:15.945Z,21.45
2019-05-23T01:59:44.742Z,28.23
2019-05-23T02:02:13.929Z,44.40
2019-05-23T02:04:42.457Z,38.10
2019-05-23T02:07:11.318Z,36.23
2019-05-23T02:09:39.864Z,33.02
2019-05-23T02:12:11.092Z,29.40
2019-05-23T02:14:42.503Z,24.10
2019-05-23T02:17:12.892Z,23.27
2019-05-23T02:19:41.547Z,22.80
2019-05-23T02:22:12.257Z,28.55
2019-05-23T02:24:41.966Z,54.67
2019-05-23T02:29:39.102Z,56.45
2019-05-23T02:32:09.372Z,37.55
2019-05-23T02:34:38.429Z,39.95
2019-05-23T02:37:09.368Z,34.85
2019-05-23T02:39:48.598Z,41.18
2019-05-23T02:42:18.869Z,35.85
2019-05-23T02:44:48.039Z,34.98
2019-05-23T02:47:30.491Z,42.23
2019-05-23T02:49:59.825Z,56.23
2019-05-23T02:52:34.966Z,47.38
2019-05-23T02:55:07.333Z,44.65
2019-05-23T02:57:37.493Z,33.58
2019-05-23T03:00:50.745Z,35.90
2019-05-23T03:03:04.775Z,30.48
2019-05-23T03:05:34.858Z,29.65
2019-05-23T03:08:05.706Z,25.57
2019-05-23T03:10:57.768Z,22.50
2019-05-23T03:13:29.006Z,17.67
2019-05-23T03:15:58.461Z,38.95
2019-05-23T03:18:34.079Z,47.85
2019-05-23T03:21:01.694Z,44.63
2019-05-23T03:23:32.725Z,43.35
2019-05-23T03:26:33.424Z,36.85
2019-05-23T03:29:02.915Z,29.63
2019-05-23T03:31:42.575Z,23.80
2019-05-23T03:36:40.816Z,19.90
2019-05-23T03:39:11.253Z,42.40
2019-05-23T03:41:40.514Z,51.63
2019-05-23T03:44:10.778Z,48.02
2019-05-23T03:46:41.076Z,44.80
2019-05-23T03:49:10.518Z,38.38
2019-05-23T03:51:41.093Z,30.88
2019-05-23T03:54:11.519Z,28.87
2019-05-23T03:56:40.109Z,22.95
2019-05-23T03:59:09.996Z,22.50
2019-05-23T04:01:47.729Z,20.50
2019-05-23T04:04:10.521Z,21.27
2019-05-23T04:06:39.514Z,17.62
2019-05-23T04:09:08.144Z,19.23
2019-05-23T04:11:37.334Z,18.23
2019-05-23T04:14:07.691Z,17.65
2019-05-23T04:16:36.534Z,19.27
2019-05-23T04:19:05.124Z,21.02
2019-05-23T04:21:33.788Z,22.13
2019-05-23T04:24:03.174Z,17.35
2019-05-23T04:26:33.271Z,13.80
2019-05-23T04:29:01.854Z,23.62
2019-05-23T04:31:30.346Z,34.23
2019-05-23T04:33:58.927Z,44.42
2019-05-23T04:36:27.690Z,50.10
2019-05-23T04:38:56.185Z,44.40
2019-05-23T04:41:25.042Z,46.37
2019-05-23T04:43:53.557Z,35.93
2019-05-23T04:46:22.044Z,23.55
2019-05-23T04:48:51.863Z,18.57
2019-05-23T04:51:21.431Z,26.05
2019-05-23T04:53:50.060Z,21.42
2019-05-23T04:56:19.046Z,26.40
2019-05-23T04:58:49.056Z,55.30
2019-05-23T05:01:19.222Z,54.45
2019-05-23T05:03:48.503Z,54.13
2019-05-23T05:06:16.994Z,43.58
2019-05-23T05:08:46.444Z,34.92
2019-05-23T05:11:15.541Z,35.65
2019-05-23T05:13:44.063Z,29.18
2019-05-23T05:16:12.742Z,22.85
2019-05-23T05:18:41.302Z,21.82
2019-05-23T05:21:09.949Z,23.30
2019-05-23T05:23:38.729Z,23.47
2019-05-23T05:26:10.319Z,25.10
2019-05-23T05:28:39.207Z,18.95
2019-05-23T05:31:07.941Z,20.17
2019-05-23T05:33:36.402Z,18.47
2019-05-23T05:36:05.006Z,21.20
2019-05-23T05:38:33.614Z,12.18
2019-05-23T05:41:02.897Z,16.70
2019-05-23T05:43:31.418Z,33.80
2019-05-23T05:46:00.237Z,35.35
2019-05-23T05:48:30.442Z,31.62
2019-05-23T05:50:59.061Z,25.65
2019-05-23T05:53:27.760Z,15.50
2019-05-23T05:55:56.312Z,11.13
2019-05-23T05:58:24.833Z,10.50
2019-05-23T06:00:57.619Z,13.22
2019-05-23T06:03:26.403Z,11.20
2019-05-23T06:06:13.138Z,10.53
2019-05-23T06:08:43.336Z,12.35
2019-05-23T06:11:12.936Z,28.02
2019-05-23T06:16:09.666Z,39.20
2019-05-23T06:18:38.319Z,38.78
2019-05-23T06:21:07.534Z,36.63
2019-05-23T06:23:36.335Z,26.97
2019-05-23T06:26:04.917Z,25.43
2019-05-23T06:28:33.615Z,24.80
2019-05-23T06:31:03.678Z,23.07
2019-05-23T06:33:32.669Z,22.30
2019-05-23T06:36:01.773Z,31.97
2019-05-23T06:38:30.632Z,41.05
2019-05-23T06:41:00.052Z,43.28
2019-05-23T06:43:28.543Z,30.90
2019-05-23T06:45:57.060Z,28.38
2019-05-23T06:48:26.673Z,21.25
2019-05-23T06:53:22.810Z,17.12
2019-05-23T06:55:51.250Z,14.85
2019-05-23T06:58:20.082Z,15.03
2019-05-23T07:00:49.634Z,20.12
2019-05-23T07:03:18.515Z,23.18
2019-05-23T07:05:47.123Z,31.43
2019-05-23T07:08:15.575Z,39.53
2019-05-23T07:10:44.832Z,25.10
2019-05-23T07:13:13.937Z,23.73
2019-05-23T07:15:44.301Z,22.77
2019-05-23T07:18:12.851Z,25.00
2019-05-23T07:20:41.413Z,17.20
2019-05-23T07:23:12.138Z,19.05
2019-05-23T07:25:41.189Z,16.37
2019-05-23T07:28:09.803Z,13.93
2019-05-23T07:30:38.313Z,12.05
2019-05-23T07:33:08.097Z,12.73
2019-05-23T07:35:36.567Z,11.90
2019-05-23T07:38:05.252Z,10.38
2019-05-23T07:40:33.946Z,11.53
2019-05-23T07:43:04.057Z,8.03
2019-05-23T07:45:39.773Z,7.70
2019-05-23T07:48:07.966Z,8.05
2019-05-23T07:50:36.555Z,7.75
2019-05-23T07:53:06.877Z,7.85
2019-05-23T07:55:46.252Z,7.78
2019-05-23T07:58:15.488Z,8.70
2019-05-23T08:00:45.675Z,7.78
2019-05-23T08:03:15.829Z,8.53
2019-05-23T08:05:44.477Z,8.10
2019-05-23T08:08:13.264Z,11.28
2019-05-23T08:10:42.004Z,8.13
2019-05-23T08:13:10.567Z,9.30
2019-05-23T08:15:39.593Z,8.33
2019-05-23T08:18:08.501Z,7.80
2019-05-23T08:20:37.093Z,7.53
2019-05-23T08:23:05.609Z,9.18
2019-05-23T08:25:34.431Z,7.80
2019-05-23T08:28:02.954Z,9.45
2019-05-23T08:30:31.760Z,8.50
2019-05-23T08:33:00.311Z,9.65
2019-05-23T08:35:29.357Z,8.58
2019-05-23T08:37:58.846Z,8.50
2019-05-23T08:42:56.692Z,10.18
2019-05-23T08:45:25.385Z,8.10
2019-05-23T08:47:53.916Z,9.13
2019-05-23T08:50:24.474Z,11.10
2019-05-23T08:52:52.979Z,9.40
2019-05-23T08:55:23.963Z,8.55
2019-05-23T08:57:56.922Z,10.20
2019-05-23T09:00:27.538Z,12.03
2019-05-23T09:02:58.853Z,14.47
2019-05-23T09:05:35.354Z,14.03
2019-05-23T09:08:04.560Z,11.05
2019-05-23T09:10:34.550Z,10.38
2019-05-23T09:13:03.694Z,10.90
2019-05-23T09:15:32.283Z,10.00
2019-05-23T09:18:01.507Z,12.58
2019-05-23T09:20:30.603Z,10.25
2019-05-23T09:22:59.052Z,11.95
2019-05-23T09:25:27.497Z,11.45
2019-05-23T09:27:56.354Z,10.75
2019-05-23T09:30:26.183Z,10.48
2019-05-23T09:32:55.008Z,11.03
2019-05-23T09:35:23.847Z,11.60
2019-05-23T09:37:52.630Z,11.70
2019-05-23T09:40:21.217Z,13.15
2019-05-23T09:42:49.779Z,11.97
2019-05-23T09:45:18.361Z,14.87
2019-05-23T09:47:50.908Z,14.38
2019-05-23T09:50:18.546Z,15.32
2019-05-23T09:52:47.198Z,15.13
2019-05-23T09:55:16.156Z,15.00
2019-05-23T09:57:44.784Z,17.35
2019-05-23T10:00:17.235Z,15.90
2019-05-23T10:02:45.806Z,19.95
2019-05-23T10:05:15.248Z,17.45
2019-05-23T10:07:43.826Z,20.08
2019-05-23T10:10:12.981Z,18.12
2019-05-23T10:12:41.743Z,23.42
2019-05-23T10:15:12.874Z,25.63
2019-05-23T10:17:41.462Z,29.50
2019-05-23T10:20:10.800Z,28.42
2019-05-23T10:22:39.321Z,26.70
2019-05-23T10:25:08.106Z,29.37
2019-05-23T10:27:36.756Z,22.30
2019-05-23T10:30:10.814Z,17.52
2019-05-23T10:32:39.282Z,21.45
2019-05-23T10:35:09.543Z,21.77
2019-05-23T10:37:38.326Z,20.50
2019-05-23T10:40:08.543Z,23.07
2019-05-23T10:42:58.030Z,17.62
2019-05-23T10:45:26.945Z,19.32
2019-05-23T10:47:56.267Z,16.48
2019-05-23T10:50:25.136Z,21.70
2019-05-23T10:52:53.633Z,24.87
2019-05-23T10:55:22.157Z,19.57
2019-05-23T10:57:50.701Z,21.33
2019-05-23T11:00:21.701Z,21.05
2019-05-23T11:03:10.682Z,22.85
2019-05-23T11:05:39.195Z,22.45
2019-05-23T11:08:08.099Z,25.25
2019-05-23T11:10:36.705Z,25.15
2019-05-23T11:13:05.514Z,25.05
2019-05-23T11:15:34.205Z,21.90
2019-05-23T11:18:02.747Z,30.07
2019-05-23T11:20:31.256Z,35.63
2019-05-23T11:23:03.494Z,36.55
2019-05-23T11:25:30.741Z,34.92
2019-05-23T11:27:59.342Z,28.38
2019-05-23T11:30:29.517Z,19.33
2019-05-23T11:32:58.074Z,20.17
2019-05-23T11:35:26.661Z,20.30
2019-05-23T11:37:55.109Z,20.82
2019-05-23T11:40:23.684Z,22.45
2019-05-23T11:42:52.952Z,20.90
2019-05-23T11:45:23.819Z,24.12
2019-05-23T11:47:52.756Z,24.45
2019-05-23T11:50:21.266Z,27.02
2019-05-23T11:52:49.853Z,25.48
2019-05-23T11:55:18.891Z,24.10
2019-05-23T11:57:47.525Z,25.35
2019-05-23T12:00:19.874Z,25.97
2019-05-23T12:02:49.658Z,22.45
2019-05-23T12:05:20.262Z,21.55
2019-05-23T12:07:48.880Z,19.48
2019-05-23T12:10:17.781Z,24.18
2019-05-23T12:13:05.704Z,21.07
2019-05-23T12:15:35.817Z,25.32
2019-05-23T12:18:05.010Z,23.80
2019-05-23T12:20:33.612Z,25.55
2019-05-23T12:23:07.495Z,21.75
2019-05-23T12:25:33.159Z,16.65
2019-05-23T12:28:01.691Z,20.95
2019-05-23T12:30:30.303Z,21.02
2019-05-23T12:32:58.746Z,19.20
2019-05-23T12:35:27.193Z,20.45
2019-05-23T12:37:55.739Z,19.35
2019-05-23T12:40:24.257Z,17.23
2019-05-23T12:42:52.778Z,15.75
2019-05-23T12:45:21.930Z,16.60
2019-05-23T12:47:52.082Z,20.48
2019-05-23T12:50:22.934Z,18.05
2019-05-23T12:52:51.470Z,18.42
2019-05-23T12:55:19.994Z,19.92
2019-05-23T12:57:48.511Z,21.52
2019-05-23T13:00:20.650Z,18.35
2019-05-23T13:02:58.015Z,19.12
2019-05-23T13:05:26.922Z,20.52
2019-05-23T13:07:55.511Z,20.30
2019-05-23T13:10:25.339Z,17.98
2019-05-23T13:12:54.252Z,18.85
2019-05-23T13:15:23.268Z,18.45
2019-05-23T13:17:51.815Z,17.62
2019-05-23T13:20:20.832Z,19.02
2019-05-23T13:22:49.373Z,18.00
2019-05-23T13:25:18.080Z,18.50
2019-05-23T13:27:46.850Z,16.33
2019-05-23T13:30:15.759Z,19.17
2019-05-23T13:32:44.274Z,17.82
2019-05-23T13:35:13.581Z,16.05
2019-05-23T13:37:52.913Z,18.62
2019-05-23T13:40:13.582Z,18.17
2019-05-23T13:42:42.225Z,19.20
2019-05-23T13:45:10.921Z,16.07
2019-05-23T13:47:40.576Z,16.17
2019-05-23T13:52:37.578Z,22.10
2019-05-23T13:55:06.943Z,21.30
2019-05-23T13:57:36.494Z,21.90
2019-05-23T14:00:08.793Z,23.90
2019-05-23T14:02:37.499Z,31.30
2019-05-23T14:05:08.709Z,26.63
2019-05-23T14:07:37.717Z,29.60
2019-05-23T14:10:08.451Z,26.90
2019-05-23T14:12:37.146Z,33.73
2019-05-23T14:15:06.985Z,33.20
2019-05-23T14:17:40.115Z,30.10
2019-05-23T14:20:08.977Z,34.73
2019-05-23T14:22:41.950Z,28.70
2019-05-23T14:25:10.726Z,30.12
2019-05-23T14:27:52.717Z,29.20
2019-05-23T14:30:29.821Z,27.93
2019-05-23T14:33:12.605Z,40.17
2019-05-23T14:35:48.520Z,36.53
2019-05-23T14:38:30.336Z,36.03
2019-05-23T14:40:48.403Z,35.65
2019-05-23T14:43:18.750Z,39.42
2019-05-23T14:46:03.946Z,33.33
2019-05-23T14:48:34.876Z,24.27
2019-05-23T14:51:22.210Z,24.20
2019-05-23T14:53:55.341Z,29.02
2019-05-23T14:56:25.597Z,31.33
2019-05-23T14:58:54.268Z,36.23
2019-05-23T15:01:24.853Z,37.87
2019-05-23T15:03:54.095Z,33.75
2019-05-23T15:06:23.060Z,35.73
2019-05-23T15:08:52.243Z,41.73
2019-05-23T15:11:21.402Z,35.05
2019-05-23T15:13:50.085Z,34.88
2019-05-23T15:16:19.271Z,33.92
2019-05-23T15:18:47.756Z,31.35
2019-05-23T15:21:16.353Z,31.07
2019-05-23T15:23:44.866Z,31.82
2019-05-23T15:26:22.954Z,26.27
2019-05-23T15:28:43.522Z,27.30
2019-05-23T15:31:12.226Z,30.82
2019-05-23T15:33:40.683Z,27.20
2019-05-23T15:36:09.376Z,23.27
2019-05-23T15:38:37.898Z,27.33
2019-05-23T15:41:06.441Z,26.97
2019-05-23T15:43:34.989Z,26.27
2019-05-23T15:46:03.649Z,28.50
2019-05-23T15:48:32.156Z,31.35
2019-05-23T15:51:00.912Z,33.20
2019-05-23T15:53:40.378Z,33.70
2019-05-23T15:56:27.000Z,33.65
2019-05-23T15:58:42.524Z,35.78
2019-05-23T16:01:18.881Z,35.83
2019-05-23T16:03:51.882Z,38.08
2019-05-23T16:06:25.271Z,37.93
2019-05-23T16:08:54.004Z,39.30
2019-05-23T16:11:23.098Z,41.68
2019-05-23T16:13:51.662Z,37.00
2019-05-23T16:16:20.856Z,37.98
2019-05-23T16:18:49.441Z,38.83
2019-05-23T16:21:18.841Z,45.00
2019-05-23T16:23:47.510Z,36.55
2019-05-23T16:26:16.386Z,39.98
2019-05-23T16:28:45.301Z,43.42
2019-05-23T16:31:14.095Z,42.40
2019-05-23T16:33:42.672Z,38.70
2019-05-23T16:36:11.187Z,41.28
2019-05-23T16:38:39.709Z,46.35
2019-05-23T16:41:11.441Z,43.58
2019-05-23T16:43:38.840Z,45.70
2019-05-23T16:46:07.418Z,50.37
2019-05-23T16:48:35.945Z,53.17
2019-05-23T16:51:04.641Z,58.08
2019-05-23T16:53:35.857Z,63.17
2019-05-23T16:56:08.148Z,54.40
2019-05-23T16:58:38.264Z,53.95
2019-05-23T17:01:20.382Z,55.03
2019-05-23T17:03:43.024Z,49.40
2019-05-23T17:06:19.120Z,56.00
2019-05-23T17:08:49.364Z,48.23
2019-05-23T17:11:37.683Z,46.85
2019-05-23T17:14:24.104Z,51.37
2019-05-23T17:17:05.120Z,46.65
2019-05-23T17:19:48.669Z,49.08
2019-05-23T17:22:24.446Z,50.25
2019-05-23T17:24:54.631Z,46.88
2019-05-23T17:27:31.029Z,58.00
2019-05-23T17:30:07.604Z,60.88
2019-05-23T17:32:35.226Z,59.88
2019-05-23T17:35:04.524Z,62.25
2019-05-23T17:37:33.066Z,66.95
2019-05-23T17:40:21.715Z,68.10
2019-05-23T17:42:36.680Z,76.22
2019-05-23T17:45:06.880Z,81.45
2019-05-23T17:47:36.254Z,82.40
2019-05-23T17:50:07.518Z,64.25
2019-05-23T17:52:36.966Z,58.75
2019-05-23T17:55:06.793Z,66.37
2019-05-23T17:57:35.961Z,61.42
2019-05-23T18:00:07.769Z,55.67
2019-05-23T18:02:36.284Z,50.50
2019-05-23T18:05:07.346Z,50.67
2019-05-23T18:07:37.902Z,49.93
2019-05-23T18:10:08.352Z,48.65
2019-05-23T18:12:37.348Z,51.25
2019-05-23T18:15:08.494Z,47.85
2019-05-23T18:17:37.509Z,42.70
2019-05-23T18:20:08.538Z,46.65
2019-05-23T18:22:37.169Z,40.92
2019-05-23T18:25:11.257Z,45.95
2019-05-23T18:27:40.983Z,42.13
2019-05-23T18:32:45.078Z,39.33
2019-05-23T18:35:14.154Z,41.73
2019-05-23T18:37:42.606Z,34.60
2019-05-23T18:40:11.499Z,38.83
2019-05-23T18:42:40.010Z,39.50
2019-05-23T18:45:09.378Z,38.33
2019-05-23T18:47:39.658Z,35.08
2019-05-23T18:50:08.785Z,38.95
2019-05-23T18:52:37.573Z,32.80
2019-05-23T18:55:07.029Z,38.33
2019-05-23T18:57:36.418Z,33.48
2019-05-23T19:00:06.555Z,30.70
2019-05-23T19:02:35.186Z,30.52
2019-05-23T19:05:05.518Z,37.40
2019-05-23T19:07:34.145Z,32.78
2019-05-23T19:10:03.555Z,30.75
2019-05-23T19:12:32.271Z,37.30
2019-05-23T19:15:00.809Z,30.63
2019-05-23T19:17:29.464Z,31.55
2019-05-23T19:19:58.429Z,31.57
2019-05-23T19:22:27.838Z,35.20
2019-05-23T19:24:56.394Z,33.55
2019-05-23T19:27:24.985Z,35.65
2019-05-23T19:29:53.498Z,30.92
2019-05-23T19:32:22.122Z,36.77
2019-05-23T19:34:50.938Z,36.23
2019-05-23T19:37:19.642Z,31.93
2019-05-23T19:39:48.548Z,38.53
2019-05-23T19:42:17.533Z,32.78
2019-05-23T19:44:46.125Z,34.03
2019-05-23T19:47:14.686Z,36.20
2019-05-23T19:49:43.144Z,41.35
2019-05-23T19:52:12.033Z,33.50
2019-05-23T19:54:40.676Z,27.25
2019-05-23T19:57:09.126Z,40.43
2019-05-23T19:59:38.228Z,35.90
2019-05-23T20:02:08.488Z,36.40
2019-05-23T20:04:38.641Z,39.80
2019-05-23T20:07:07.830Z,44.23
2019-05-23T20:09:36.993Z,40.28
2019-05-23T20:12:05.519Z,43.65
2019-05-23T20:14:34.373Z,43.63
2019-05-23T20:17:02.933Z,45.07
2019-05-23T20:19:31.443Z,42.80
2019-05-23T20:22:00.129Z,47.70
2019-05-23T20:24:28.706Z,41.00
2019-05-23T20:26:57.674Z,39.60
2019-05-23T20:29:26.191Z,44.08
2019-05-23T20:31:54.842Z,41.13
2019-05-23T20:34:23.289Z,34.48
2019-05-23T20:36:51.798Z,36.83
2019-05-23T20:39:21.145Z,38.70
2019-05-23T20:41:49.592Z,37.45
2019-05-23T20:44:18.041Z,35.23
2019-05-23T20:46:46.664Z,37.50
2019-05-23T20:49:15.192Z,36.05
2019-05-23T20:51:44.367Z,38.10
2019-05-23T20:54:13.013Z,36.15
2019-05-23T20:56:41.468Z,36.48
2019-05-23T20:59:10.337Z,41.33
2019-05-23T21:01:40.977Z,35.95
2019-05-23T21:04:09.429Z,39.40
2019-05-23T21:06:37.897Z,39.03
2019-05-23T21:09:07.919Z,38.90
2019-05-23T21:11:36.430Z,37.45
2019-05-23T21:14:05.209Z,37.98
2019-05-23T21:16:33.700Z,36.07
2019-05-23T21:19:02.219Z,39.73
2019-05-23T21:21:30.678Z,39.35
2019-05-23T21:23:59.300Z,34.38
2019-05-23T21:26:27.818Z,37.63
2019-05-23T21:28:56.354Z,37.98
2019-05-23T21:31:25.988Z,37.63
2019-05-23T21:33:54.443Z,38.55
2019-05-23T21:36:22.953Z,40.15
2019-05-23T21:38:51.660Z,37.28
2019-05-23T21:41:20.349Z,42.07
2019-05-23T21:43:50.588Z,42.98
2019-05-23T21:46:19.061Z,32.85
2019-05-23T21:48:47.577Z,38.25
2019-05-23T21:51:16.083Z,37.75
2019-05-23T21:53:44.591Z,40.67
2019-05-23T21:56:13.129Z,38.40
2019-05-23T21:58:41.637Z,36.45
2019-05-23T22:01:13.519Z,35.98
2019-05-23T22:03:45.219Z,30.55
2019-05-23T22:06:15.513Z,34.60
2019-05-23T22:08:45.009Z,30.60
2019-05-23T22:11:13.454Z,30.65
2019-05-23T22:13:41.900Z,28.42
2019-05-23T22:16:11.114Z,33.70
2019-05-23T22:18:39.632Z,33.15
2019-05-23T22:21:08.518Z,33.23
2019-05-23T22:23:37.080Z,30.32
2019-05-23T22:26:05.670Z,33.02
2019-05-23T22:28:34.204Z,34.83
2019-05-23T22:31:02.736Z,34.92
2019-05-23T22:33:42.004Z,36.38
2019-05-23T22:36:11.168Z,41.80
2019-05-23T22:38:39.621Z,39.83
2019-05-23T22:41:08.137Z,36.55
2019-05-23T22:43:36.990Z,31.87
2019-05-23T22:46:05.602Z,36.25
2019-05-23T22:48:34.049Z,34.00
2019-05-23T22:51:02.531Z,32.33
2019-05-23T22:53:31.052Z,38.50
2019-05-23T22:55:59.503Z,37.33
2019-05-23T22:58:27.982Z,35.08
2019-05-23T23:00:56.496Z,38.83
2019-05-23T23:03:25.015Z,38.48
2019-05-23T23:05:53.793Z,44.48
2019-05-23T23:08:22.755Z,35.80
2019-05-23T23:10:51.196Z,37.67
2019-05-23T23:13:20.038Z,34.15
2019-05-23T23:15:48.538Z,32.00
2019-05-23T23:18:17.078Z,35.40
2019-05-23T23:20:46.251Z,31.80
2019-05-23T23:23:14.845Z,29.92
2019-05-23T23:25:43.369Z,30.17
2019-05-23T23:28:11.929Z,29.40
2019-05-23T23:30:47.854Z,31.15
2019-05-23T23:33:16.475Z,30.30
2019-05-23T23:35:44.989Z,34.70
2019-05-23T23:38:13.454Z,32.10
2019-05-23T23:40:41.994Z,29.72
2019-05-23T23:43:10.442Z,26.65
2019-05-23T23:45:57.133Z,27.90
2019-05-23T23:48:43.713Z,28.65
2019-05-23T23:51:30.410Z,29.57
2019-05-23T23:54:17.025Z,28.40
2019-05-23T23:57:03.910Z,37.53
2019-05-23T23:59:31.675Z,31.37
